createdAt,value
2022-07-29T00:00:49.504Z,0
2022-07-29T00:02:05.789Z,0
2022-07-29T00:03:22.091Z,0
2022-07-29T00:04:37.406Z,0
2022-07-29T00:05:52.724Z,0
2022-07-29T00:07:08.036Z,0
2022-07-29T00:08:23.353Z,0
2022-07-29T00:09:39.644Z,0
2022-07-29T00:10:55.937Z,0
2022-07-29T00:12:12.223Z,0
2022-07-29T00:13:28.516Z,0
2022-07-29T00:14:44.819Z,0
2022-07-29T00:16:01.101Z,0
2022-07-29T00:17:17.406Z,0
2022-07-29T00:18:33.686Z,0
2022-07-29T00:19:49.986Z,0
2022-07-29T00:21:05.311Z,0
2022-07-29T00:22:21.590Z,0
2022-07-29T00:23:37.898Z,0
2022-07-29T00:24:54.194Z,0
2022-07-29T00:26:10.471Z,0
2022-07-29T00:27:26.763Z,0
2022-07-29T00:28:43.066Z,0
2022-07-29T00:29:59.357Z,0
2022-07-29T00:31:15.662Z,0
2022-07-29T00:32:31.953Z,0
2022-07-29T00:33:47.256Z,0
2022-07-29T00:35:02.573Z,0
2022-07-29T00:36:17.880Z,0
2022-07-29T00:37:33.190Z,0
2022-07-29T00:38:49.483Z,0
2022-07-29T00:40:05.785Z,0
2022-07-29T00:41:22.084Z,0
2022-07-29T00:42:38.377Z,0
2022-07-29T00:43:54.665Z,0
2022-07-29T00:45:10.967Z,0
2022-07-29T00:46:27.256Z,0
2022-07-29T00:47:43.551Z,0
2022-07-29T00:48:59.832Z,0
2022-07-29T00:50:16.132Z,0
2022-07-29T00:51:32.423Z,0
2022-07-29T00:52:48.731Z,0
2022-07-29T00:54:04.029Z,0
2022-07-29T00:55:20.319Z,0
2022-07-29T00:56:36.618Z,0
2022-07-29T00:57:52.921Z,0
2022-07-29T00:59:09.207Z,0
2022-07-29T01:01:41.793Z,0
2022-07-29T01:02:58.077Z,0
2022-07-29T01:04:13.407Z,0
2022-07-29T01:05:28.703Z,0
2022-07-29T01:06:45.002Z,0
2022-07-29T01:08:01.306Z,0
2022-07-29T01:09:17.600Z,0
2022-07-29T01:10:33.881Z,0
2022-07-29T01:11:50.184Z,0
2022-07-29T01:13:06.474Z,0
2022-07-29T01:14:22.766Z,0
2022-07-29T01:15:39.054Z,0
2022-07-29T01:16:55.361Z,0
2022-07-29T01:18:11.643Z,0
2022-07-29T01:19:27.932Z,0
2022-07-29T01:20:44.227Z,0
2022-07-29T01:21:59.538Z,0
2022-07-29T01:23:15.835Z,0
2022-07-29T01:24:32.132Z,0
2022-07-29T01:25:48.430Z,0
2022-07-29T01:27:04.719Z,0
2022-07-29T01:28:21.006Z,0
2022-07-29T01:29:37.313Z,0
2022-07-29T01:30:52.612Z,0
2022-07-29T01:32:07.926Z,0
2022-07-29T01:33:23.241Z,0
2022-07-29T01:34:38.548Z,0
2022-07-29T01:35:54.851Z,0
2022-07-29T01:37:11.141Z,0
2022-07-29T01:38:27.444Z,0
2022-07-29T01:39:43.735Z,0
2022-07-29T01:41:00.029Z,0
2022-07-29T01:42:16.307Z,0
2022-07-29T01:43:32.611Z,0
2022-07-29T01:44:48.903Z,0
2022-07-29T01:46:05.188Z,0
2022-07-29T01:47:21.481Z,0
2022-07-29T01:48:37.784Z,0
2022-07-29T01:49:54.072Z,0
2022-07-29T01:51:09.389Z,0
2022-07-29T01:52:25.677Z,0
2022-07-29T01:53:41.959Z,0
2022-07-29T01:54:58.265Z,0
2022-07-29T01:56:14.552Z,0
2022-07-29T01:57:30.857Z,0
2022-07-29T01:58:47.136Z,0
2022-07-29T02:00:02.460Z,0
2022-07-29T02:01:17.767Z,0
2022-07-29T02:02:33.084Z,0
2022-07-29T02:03:48.391Z,0
2022-07-29T02:05:04.676Z,0
2022-07-29T02:06:20.968Z,0
2022-07-29T02:07:37.263Z,0
2022-07-29T02:08:53.564Z,0
2022-07-29T02:10:09.859Z,0
2022-07-29T02:11:26.149Z,0
2022-07-29T02:12:42.449Z,0
2022-07-29T02:13:58.734Z,0
2022-07-29T02:15:15.031Z,0
2022-07-29T02:16:31.330Z,0
2022-07-29T02:17:47.611Z,0
2022-07-29T02:19:03.913Z,0
2022-07-29T02:20:19.211Z,0
2022-07-29T02:21:35.518Z,0
2022-07-29T02:22:51.795Z,0
2022-07-29T02:24:08.101Z,0
2022-07-29T02:25:24.381Z,0
2022-07-29T02:26:40.674Z,0
2022-07-29T02:27:56.978Z,0
2022-07-29T02:29:12.298Z,0
2022-07-29T02:30:27.605Z,0
2022-07-29T02:31:42.905Z,0
2022-07-29T02:32:58.214Z,0
2022-07-29T02:34:14.512Z,0
2022-07-29T02:35:30.804Z,0
2022-07-29T02:36:47.110Z,0
2022-07-29T02:38:03.396Z,0
2022-07-29T02:39:19.692Z,0
2022-07-29T02:40:35.978Z,0
2022-07-29T02:41:52.271Z,0
2022-07-29T02:43:08.564Z,0
2022-07-29T02:44:24.861Z,0
2022-07-29T02:45:41.147Z,0
2022-07-29T02:46:57.436Z,0
2022-07-29T02:48:13.740Z,0
2022-07-29T02:49:29.043Z,0
2022-07-29T02:50:45.337Z,0
2022-07-29T02:52:01.626Z,0
2022-07-29T02:53:17.932Z,0
2022-07-29T02:54:34.221Z,0
2022-07-29T02:55:50.506Z,0
2022-07-29T02:57:06.802Z,0
2022-07-29T02:58:22.073Z,0
2022-07-29T02:59:37.385Z,0
2022-07-29T03:00:52.691Z,0
2022-07-29T03:02:08.011Z,0
2022-07-29T03:03:24.301Z,0
2022-07-29T03:04:40.537Z,0
2022-07-29T03:05:56.796Z,0
2022-07-29T03:07:13.030Z,0
2022-07-29T03:08:29.325Z,0
2022-07-29T03:09:45.614Z,0
2022-07-29T03:11:01.910Z,0
2022-07-29T03:12:18.196Z,0
2022-07-29T03:13:34.493Z,0
2022-07-29T03:14:50.778Z,0
2022-07-29T03:16:07.035Z,0
2022-07-29T03:17:23.267Z,0
2022-07-29T03:18:38.514Z,0
2022-07-29T03:19:54.752Z,0
2022-07-29T03:21:10.992Z,0
2022-07-29T03:22:27.245Z,0
2022-07-29T03:23:43.485Z,0
2022-07-29T03:24:59.723Z,0
2022-07-29T03:26:15.962Z,0
2022-07-29T03:27:31.226Z,0
2022-07-29T03:28:46.483Z,0
2022-07-29T03:30:02.723Z,0
2022-07-29T03:31:18.949Z,0
2022-07-29T03:32:35.187Z,0
2022-07-29T03:33:51.431Z,0
2022-07-29T03:35:07.662Z,0
2022-07-29T03:36:23.922Z,0
2022-07-29T03:37:40.000Z,0
2022-07-29T03:38:56.382Z,0
2022-07-29T03:40:12.620Z,0
2022-07-29T03:41:28.869Z,0
2022-07-29T03:42:45.096Z,0
2022-07-29T03:44:01.335Z,0
2022-07-29T03:45:16.601Z,0
2022-07-29T03:46:32.839Z,0
2022-07-29T03:47:49.080Z,0
2022-07-29T03:49:05.326Z,0
2022-07-29T03:50:21.553Z,0
2022-07-29T03:51:37.797Z,0
2022-07-29T03:52:54.034Z,0
2022-07-29T03:54:09.297Z,0
2022-07-29T03:55:24.557Z,0
2022-07-29T03:56:39.809Z,0
2022-07-29T03:57:55.078Z,0
2022-07-29T03:59:11.302Z,0
2022-07-29T04:00:26.575Z,0
2022-07-29T04:01:41.818Z,0
2022-07-29T04:02:58.064Z,0
2022-07-29T04:04:14.316Z,0
2022-07-29T04:05:30.546Z,0
2022-07-29T04:06:46.780Z,0
2022-07-29T04:08:03.019Z,0
2022-07-29T04:09:19.264Z,0
2022-07-29T04:10:35.499Z,0
2022-07-29T04:11:51.747Z,0
2022-07-29T04:13:07.991Z,0
2022-07-29T04:14:24.230Z,0
2022-07-29T04:15:40.462Z,5
2022-07-29T04:16:56.695Z,5
2022-07-29T04:18:11.956Z,5
2022-07-29T04:19:28.202Z,5
2022-07-29T04:20:44.443Z,5
2022-07-29T04:22:00.678Z,5
2022-07-29T04:23:16.914Z,5
2022-07-29T04:24:33.160Z,5
2022-07-29T04:25:49.394Z,5
2022-07-29T04:27:04.652Z,5
2022-07-29T04:28:19.914Z,5
2022-07-29T04:29:36.144Z,5
2022-07-29T04:30:52.379Z,5
2022-07-29T04:32:07.661Z,5
2022-07-29T04:33:22.910Z,5
2022-07-29T04:34:39.140Z,5
2022-07-29T04:35:54.399Z,5
2022-07-29T04:37:10.648Z,5
2022-07-29T04:38:26.877Z,11
2022-07-29T04:39:43.133Z,11
2022-07-29T04:40:59.352Z,11
2022-07-29T04:42:15.612Z,11
2022-07-29T04:43:31.847Z,11
2022-07-29T04:44:48.086Z,11
2022-07-29T04:46:04.313Z,11
2022-07-29T04:47:20.550Z,11
2022-07-29T04:48:36.792Z,11
2022-07-29T04:49:53.027Z,11
2022-07-29T04:51:09.267Z,11
2022-07-29T04:52:24.532Z,11
2022-07-29T04:53:40.765Z,11
2022-07-29T04:54:57.002Z,11
2022-07-29T04:56:13.245Z,16
2022-07-29T04:57:29.495Z,16
2022-07-29T04:58:44.749Z,16
2022-07-29T05:00:00.004Z,16
2022-07-29T05:01:15.261Z,16
2022-07-29T05:02:30.512Z,16
2022-07-29T05:03:46.757Z,16
2022-07-29T05:05:02.989Z,16
2022-07-29T05:06:19.239Z,16
2022-07-29T05:07:35.479Z,16
2022-07-29T05:08:51.721Z,22
2022-07-29T05:10:07.947Z,22
2022-07-29T05:11:24.184Z,22
2022-07-29T05:12:40.424Z,22
2022-07-29T05:13:56.665Z,22
2022-07-29T05:15:12.905Z,22
2022-07-29T05:16:29.142Z,22
2022-07-29T05:17:45.382Z,22
2022-07-29T05:19:00.649Z,22
2022-07-29T05:20:16.876Z,22
2022-07-29T05:21:33.113Z,28
2022-07-29T05:22:49.355Z,28
2022-07-29T05:24:05.596Z,28
2022-07-29T05:25:21.844Z,28
2022-07-29T05:26:38.073Z,33
2022-07-29T05:27:53.341Z,33
2022-07-29T05:29:08.604Z,33
2022-07-29T05:30:24.825Z,33
2022-07-29T05:31:40.090Z,33
2022-07-29T05:32:55.344Z,33
2022-07-29T05:34:11.595Z,33
2022-07-29T05:35:27.823Z,33
2022-07-29T05:36:44.058Z,33
2022-07-29T05:38:00.310Z,33
2022-07-29T05:39:16.553Z,28
2022-07-29T05:40:32.787Z,28
2022-07-29T05:41:49.031Z,28
2022-07-29T05:43:05.260Z,28
2022-07-29T05:44:21.499Z,28
2022-07-29T05:45:37.745Z,28
2022-07-29T05:46:53.986Z,28
2022-07-29T05:48:10.225Z,28
2022-07-29T05:49:25.470Z,28
2022-07-29T05:50:41.707Z,28
2022-07-29T05:51:57.950Z,28
2022-07-29T05:53:14.188Z,28
2022-07-29T05:54:30.426Z,28
2022-07-29T05:55:46.667Z,28
2022-07-29T05:57:02.921Z,28
2022-07-29T05:58:18.182Z,28
2022-07-29T05:59:33.436Z,28
2022-07-29T06:00:48.698Z,28
2022-07-29T06:02:03.956Z,28
2022-07-29T06:03:19.197Z,28
2022-07-29T06:04:34.458Z,33
2022-07-29T06:05:50.694Z,33
2022-07-29T06:07:06.933Z,33
2022-07-29T06:08:23.181Z,33
2022-07-29T06:09:39.417Z,33
2022-07-29T06:10:55.671Z,33
2022-07-29T06:12:11.911Z,33
2022-07-29T06:13:28.150Z,33
2022-07-29T06:14:44.396Z,33
2022-07-29T06:16:00.619Z,33
2022-07-29T06:17:16.864Z,28
2022-07-29T06:18:33.097Z,28
2022-07-29T06:19:49.337Z,28
2022-07-29T06:21:04.602Z,28
2022-07-29T06:22:20.836Z,33
2022-07-29T06:23:37.092Z,33
2022-07-29T06:24:53.327Z,33
2022-07-29T06:26:09.569Z,33
2022-07-29T06:27:25.799Z,33
2022-07-29T06:28:42.041Z,33
2022-07-29T06:29:57.295Z,33
2022-07-29T06:31:12.570Z,33
2022-07-29T06:32:28.802Z,33
2022-07-29T06:33:45.046Z,39
2022-07-29T06:35:01.282Z,39
2022-07-29T06:36:17.527Z,39
2022-07-29T06:37:33.772Z,39
2022-07-29T06:38:49.996Z,33
2022-07-29T06:40:06.252Z,33
2022-07-29T06:41:22.480Z,39
2022-07-29T06:42:38.734Z,39
2022-07-29T06:43:54.963Z,39
2022-07-29T06:45:11.198Z,39
2022-07-29T06:46:27.438Z,39
2022-07-29T06:47:42.697Z,39
2022-07-29T06:48:58.939Z,39
2022-07-29T06:50:15.186Z,39
2022-07-29T06:51:31.425Z,39
2022-07-29T06:52:47.665Z,39
2022-07-29T06:54:03.901Z,39
2022-07-29T06:55:20.140Z,33
2022-07-29T06:56:35.410Z,33
2022-07-29T06:57:50.652Z,33
2022-07-29T06:59:06.893Z,33
2022-07-29T07:00:23.149Z,33
2022-07-29T07:01:39.380Z,33
2022-07-29T07:02:55.625Z,28
2022-07-29T07:04:11.864Z,28
2022-07-29T07:05:28.089Z,28
2022-07-29T07:06:44.348Z,28
2022-07-29T07:08:00.582Z,28
2022-07-29T07:09:16.821Z,28
2022-07-29T07:10:33.068Z,33
2022-07-29T07:11:49.303Z,33
2022-07-29T07:13:05.539Z,33
2022-07-29T07:14:20.800Z,39
2022-07-29T07:15:37.037Z,33
2022-07-29T07:16:53.281Z,39
2022-07-29T07:18:09.508Z,39
2022-07-29T07:19:25.753Z,39
2022-07-29T07:20:42.005Z,39
2022-07-29T07:21:58.230Z,39
2022-07-29T07:23:13.498Z,39
2022-07-29T07:24:28.751Z,39
2022-07-29T07:25:44.984Z,45
2022-07-29T07:27:01.225Z,39
2022-07-29T07:28:17.474Z,39
2022-07-29T07:29:33.719Z,39
2022-07-29T07:30:49.944Z,39
2022-07-29T07:32:06.195Z,39
2022-07-29T07:33:22.428Z,39
2022-07-29T07:34:38.663Z,39
2022-07-29T07:35:54.915Z,28
2022-07-29T07:37:11.160Z,28
2022-07-29T07:38:27.401Z,33
2022-07-29T07:39:43.632Z,28
2022-07-29T07:40:58.891Z,33
2022-07-29T07:42:15.132Z,33
2022-07-29T07:43:31.365Z,28
2022-07-29T07:44:47.612Z,28
2022-07-29T07:46:03.845Z,28
2022-07-29T07:47:20.089Z,33
2022-07-29T07:48:36.324Z,39
2022-07-29T07:49:51.598Z,39
2022-07-29T07:51:06.858Z,33
2022-07-29T07:52:22.117Z,33
2022-07-29T07:53:37.365Z,39
2022-07-29T07:54:52.639Z,39
2022-07-29T07:56:07.886Z,39
2022-07-29T07:57:24.116Z,39
2022-07-29T07:58:40.368Z,39
2022-07-29T07:59:56.608Z,39
2022-07-29T08:01:12.851Z,39
2022-07-29T08:02:29.084Z,39
2022-07-29T08:03:45.332Z,39
2022-07-29T08:05:01.572Z,39
2022-07-29T08:06:17.806Z,33
2022-07-29T08:07:34.057Z,39
2022-07-29T08:08:50.282Z,39
2022-07-29T08:10:06.522Z,39
2022-07-29T08:11:22.762Z,39
2022-07-29T08:12:38.034Z,39
2022-07-29T08:13:54.272Z,39
2022-07-29T08:15:10.501Z,39
2022-07-29T08:16:26.757Z,39
2022-07-29T08:17:42.978Z,39
2022-07-29T08:18:59.227Z,39
2022-07-29T08:20:15.461Z,39
2022-07-29T08:21:30.740Z,39
2022-07-29T08:22:45.979Z,39
2022-07-29T08:24:02.233Z,39
2022-07-29T08:25:18.469Z,39
2022-07-29T08:26:34.703Z,39
2022-07-29T08:27:50.950Z,39
2022-07-29T08:29:07.187Z,39
2022-07-29T08:30:23.421Z,39
2022-07-29T08:31:39.656Z,39
2022-07-29T08:32:55.907Z,39
2022-07-29T08:34:12.135Z,39
2022-07-29T08:35:28.383Z,39
2022-07-29T08:36:44.630Z,39
2022-07-29T08:38:00.852Z,39
2022-07-29T08:39:16.123Z,39
2022-07-29T08:40:32.355Z,39
2022-07-29T08:41:48.589Z,39
2022-07-29T08:43:04.836Z,39
2022-07-29T08:44:21.085Z,45
2022-07-29T08:45:37.314Z,45
2022-07-29T08:46:53.548Z,45
2022-07-29T08:48:09.795Z,45
2022-07-29T08:49:26.027Z,45
2022-07-29T08:50:41.293Z,45
2022-07-29T08:51:57.530Z,50
2022-07-29T08:53:13.772Z,50
2022-07-29T08:54:30.014Z,50
2022-07-29T08:55:46.257Z,56
2022-07-29T08:57:02.485Z,56
2022-07-29T08:58:18.723Z,61
2022-07-29T08:59:34.957Z,61
2022-07-29T09:00:51.202Z,67
2022-07-29T09:02:07.454Z,73
2022-07-29T09:03:23.689Z,73
2022-07-29T09:04:39.917Z,73
2022-07-29T09:05:56.163Z,73
2022-07-29T09:07:11.425Z,73
2022-07-29T09:08:27.649Z,73
2022-07-29T09:09:43.892Z,78
2022-07-29T09:11:00.141Z,78
2022-07-29T09:12:16.368Z,78
2022-07-29T09:13:32.603Z,78
2022-07-29T09:14:48.850Z,84
2022-07-29T09:16:05.097Z,90
2022-07-29T09:17:21.319Z,84
2022-07-29T09:18:37.555Z,84
2022-07-29T09:19:53.796Z,78
2022-07-29T09:21:10.049Z,84
2022-07-29T09:22:26.292Z,84
2022-07-29T09:23:41.536Z,84
2022-07-29T09:24:57.779Z,84
2022-07-29T09:26:14.013Z,90
2022-07-29T09:27:30.254Z,84
2022-07-29T09:28:46.481Z,84
2022-07-29T09:30:02.718Z,84
2022-07-29T09:31:18.957Z,90
2022-07-29T09:32:35.207Z,84
2022-07-29T09:33:51.441Z,84
2022-07-29T09:35:07.685Z,84
2022-07-29T09:36:23.921Z,84
2022-07-29T09:37:40.159Z,84
2022-07-29T09:38:56.389Z,84
2022-07-29T09:40:11.645Z,84
2022-07-29T09:41:27.880Z,84
2022-07-29T09:42:44.125Z,78
2022-07-29T09:44:00.356Z,73
2022-07-29T09:45:16.594Z,73
2022-07-29T09:46:32.850Z,73
2022-07-29T09:47:49.088Z,78
2022-07-29T09:49:05.321Z,73
2022-07-29T09:50:21.565Z,73
2022-07-29T09:51:37.805Z,67
2022-07-29T09:52:54.031Z,67
2022-07-29T09:54:10.280Z,67
2022-07-29T09:55:26.518Z,67
2022-07-29T09:57:58.002Z,67
2022-07-29T09:59:14.245Z,73
2022-07-29T10:00:30.471Z,78
2022-07-29T10:01:46.728Z,78
2022-07-29T10:03:02.953Z,84
2022-07-29T10:04:19.192Z,84
2022-07-29T10:05:35.442Z,84
2022-07-29T10:06:51.680Z,84
2022-07-29T10:08:07.913Z,84
2022-07-29T10:09:24.160Z,84
2022-07-29T10:10:40.396Z,73
2022-07-29T10:11:56.624Z,73
2022-07-29T10:13:11.874Z,67
2022-07-29T10:14:28.123Z,67
2022-07-29T10:15:44.360Z,67
2022-07-29T10:17:00.602Z,67
2022-07-29T10:18:16.829Z,67
2022-07-29T10:19:33.064Z,67
2022-07-29T10:20:49.320Z,67
2022-07-29T10:22:05.545Z,67
2022-07-29T10:23:21.787Z,67
2022-07-29T10:24:38.022Z,67
2022-07-29T10:25:54.268Z,73
2022-07-29T10:27:10.505Z,73
2022-07-29T10:28:26.752Z,78
2022-07-29T10:29:42.000Z,78
2022-07-29T10:30:58.240Z,90
2022-07-29T10:32:14.487Z,101
2022-07-29T10:33:30.718Z,106
2022-07-29T10:34:46.946Z,112
2022-07-29T10:36:03.186Z,118
2022-07-29T10:37:19.437Z,123
2022-07-29T10:38:35.678Z,123
2022-07-29T10:39:51.919Z,129
2022-07-29T10:41:08.158Z,135
2022-07-29T10:42:24.381Z,135
2022-07-29T10:43:40.625Z,135
2022-07-29T10:44:56.878Z,135
2022-07-29T10:46:12.124Z,140
2022-07-29T10:47:28.365Z,146
2022-07-29T10:48:44.610Z,146
2022-07-29T10:50:00.848Z,151
2022-07-29T10:51:17.074Z,151
2022-07-29T10:52:33.327Z,157
2022-07-29T10:53:49.550Z,157
2022-07-29T10:55:05.800Z,163
2022-07-29T10:56:22.027Z,163
2022-07-29T10:57:38.273Z,163
2022-07-29T10:58:54.516Z,163
2022-07-29T11:00:10.745Z,163
2022-07-29T11:01:27.004Z,168
2022-07-29T11:02:42.258Z,168
2022-07-29T11:03:58.487Z,174
2022-07-29T11:05:14.728Z,174
2022-07-29T11:06:30.974Z,174
2022-07-29T11:07:47.202Z,180
2022-07-29T11:09:03.454Z,180
2022-07-29T11:10:19.691Z,185
2022-07-29T11:11:35.930Z,185
2022-07-29T11:12:52.155Z,185
2022-07-29T11:14:08.411Z,180
2022-07-29T11:15:24.636Z,168
2022-07-29T11:16:40.881Z,123
2022-07-29T11:17:57.111Z,106
2022-07-29T11:19:12.387Z,129
2022-07-29T11:20:28.625Z,157
2022-07-29T11:21:44.849Z,191
2022-07-29T11:23:01.087Z,196
2022-07-29T11:24:17.332Z,202
2022-07-29T11:25:33.567Z,202
2022-07-29T11:26:49.811Z,202
2022-07-29T11:28:06.064Z,208
2022-07-29T11:29:22.298Z,208
2022-07-29T11:30:38.538Z,168
2022-07-29T11:31:54.784Z,185
2022-07-29T11:33:11.025Z,157
2022-07-29T11:34:27.256Z,146
2022-07-29T11:35:42.503Z,135
2022-07-29T11:36:58.761Z,112
2022-07-29T11:38:14.994Z,185
2022-07-29T11:39:31.229Z,219
2022-07-29T11:40:47.475Z,219
2022-07-29T11:42:03.710Z,219
2022-07-29T11:43:19.951Z,219
2022-07-29T11:44:36.199Z,219
2022-07-29T11:45:52.438Z,225
2022-07-29T11:47:08.668Z,225
2022-07-29T11:48:24.912Z,230
2022-07-29T11:49:41.144Z,230
2022-07-29T11:50:57.381Z,230
2022-07-29T11:52:12.645Z,230
2022-07-29T11:53:28.892Z,236
2022-07-29T11:54:45.120Z,236
2022-07-29T11:56:01.359Z,236
2022-07-29T11:57:17.611Z,241
2022-07-29T11:58:33.848Z,247
2022-07-29T11:59:50.080Z,247
2022-07-29T12:01:06.339Z,247
2022-07-29T12:02:22.558Z,253
2022-07-29T12:03:38.815Z,253
2022-07-29T12:04:55.039Z,264
2022-07-29T12:06:11.293Z,258
2022-07-29T12:07:27.534Z,213
2022-07-29T12:08:42.788Z,219
2022-07-29T12:09:59.021Z,264
2022-07-29T12:11:15.273Z,275
2022-07-29T12:12:31.504Z,241
2022-07-29T12:13:47.753Z,281
2022-07-29T12:15:03.988Z,275
2022-07-29T12:16:20.227Z,275
2022-07-29T12:17:36.468Z,281
2022-07-29T12:18:52.711Z,281
2022-07-29T12:20:08.945Z,286
2022-07-29T12:21:25.188Z,286
2022-07-29T12:22:41.434Z,286
2022-07-29T12:23:57.667Z,275
2022-07-29T12:25:12.921Z,298
2022-07-29T12:26:29.152Z,298
2022-07-29T12:27:45.407Z,286
2022-07-29T12:29:01.646Z,303
2022-07-29T12:30:17.874Z,275
2022-07-29T12:31:34.128Z,292
2022-07-29T12:32:50.362Z,247
2022-07-29T12:34:06.607Z,298
2022-07-29T12:35:22.834Z,264
2022-07-29T12:36:39.074Z,298
2022-07-29T12:37:55.327Z,292
2022-07-29T12:39:11.557Z,151
2022-07-29T12:40:27.797Z,303
2022-07-29T12:41:43.064Z,275
2022-07-29T12:42:59.307Z,331
2022-07-29T12:44:15.542Z,331
2022-07-29T12:45:31.771Z,331
2022-07-29T12:46:48.014Z,298
2022-07-29T12:48:04.263Z,326
2022-07-29T12:49:20.507Z,326
2022-07-29T12:50:36.740Z,320
2022-07-29T12:51:52.981Z,303
2022-07-29T12:53:09.228Z,202
2022-07-29T12:54:25.460Z,230
2022-07-29T12:55:41.690Z,140
2022-07-29T12:56:57.940Z,174
2022-07-29T12:58:13.184Z,118
2022-07-29T12:59:29.423Z,106
2022-07-29T13:00:45.666Z,106
2022-07-29T13:02:01.918Z,123
2022-07-29T13:03:18.155Z,129
2022-07-29T13:04:34.382Z,146
2022-07-29T13:05:49.656Z,163
2022-07-29T13:07:05.900Z,157
2022-07-29T13:08:22.134Z,135
2022-07-29T13:09:38.372Z,106
2022-07-29T13:10:54.619Z,101
2022-07-29T13:12:10.859Z,90
2022-07-29T13:13:27.098Z,90
2022-07-29T13:14:43.333Z,84
2022-07-29T13:15:59.567Z,78
2022-07-29T13:17:15.813Z,73
2022-07-29T13:18:32.047Z,67
2022-07-29T13:19:48.287Z,61
2022-07-29T13:21:04.523Z,61
2022-07-29T13:22:19.793Z,61
2022-07-29T13:23:36.023Z,56
2022-07-29T13:24:52.262Z,56
2022-07-29T13:26:08.509Z,56
2022-07-29T13:27:24.748Z,56
2022-07-29T13:28:40.985Z,61
2022-07-29T13:29:57.236Z,61
2022-07-29T13:31:13.461Z,61
2022-07-29T13:32:29.704Z,61
2022-07-29T13:33:45.949Z,61
2022-07-29T13:35:02.195Z,61
2022-07-29T13:36:18.429Z,61
2022-07-29T13:37:34.672Z,67
2022-07-29T13:38:49.919Z,67
2022-07-29T13:40:06.171Z,67
2022-07-29T13:41:22.409Z,67
2022-07-29T13:42:38.645Z,67
2022-07-29T13:43:54.890Z,73
2022-07-29T13:45:11.121Z,73
2022-07-29T13:46:27.364Z,78
2022-07-29T13:47:43.605Z,84
2022-07-29T13:48:59.845Z,84
2022-07-29T13:50:16.093Z,90
2022-07-29T13:51:32.329Z,84
2022-07-29T13:52:48.574Z,90
2022-07-29T13:54:04.807Z,90
2022-07-29T13:55:20.060Z,84
2022-07-29T13:56:36.311Z,84
2022-07-29T13:57:52.545Z,73
2022-07-29T13:59:08.776Z,73
2022-07-29T14:00:25.023Z,67
2022-07-29T14:01:41.270Z,67
2022-07-29T14:02:57.512Z,67
2022-07-29T14:04:13.736Z,67
2022-07-29T14:05:29.992Z,67
2022-07-29T14:06:46.216Z,73
2022-07-29T14:08:02.469Z,78
2022-07-29T14:09:18.699Z,84
2022-07-29T14:10:34.948Z,95
2022-07-29T14:11:50.206Z,101
2022-07-29T14:13:06.437Z,112
2022-07-29T14:14:22.675Z,129
2022-07-29T14:15:38.927Z,135
2022-07-29T14:16:55.158Z,112
2022-07-29T14:18:11.402Z,90
2022-07-29T14:19:27.646Z,78
2022-07-29T14:20:43.889Z,78
2022-07-29T14:22:00.118Z,78
2022-07-29T14:23:16.368Z,84
2022-07-29T14:24:32.611Z,90
2022-07-29T14:25:48.853Z,84
2022-07-29T14:27:05.080Z,90
2022-07-29T14:28:20.330Z,90
2022-07-29T14:29:36.589Z,84
2022-07-29T14:30:52.827Z,78
2022-07-29T14:32:09.069Z,73
2022-07-29T14:33:25.291Z,67
2022-07-29T14:34:41.534Z,61
2022-07-29T14:35:57.785Z,56
2022-07-29T14:37:14.018Z,56
2022-07-29T14:38:30.266Z,50
2022-07-29T14:39:46.497Z,50
2022-07-29T14:41:02.736Z,50
2022-07-29T14:42:18.978Z,45
2022-07-29T14:43:35.224Z,45
2022-07-29T14:44:50.481Z,45
2022-07-29T14:46:06.712Z,45
2022-07-29T14:47:22.962Z,45
2022-07-29T14:48:39.205Z,45
2022-07-29T14:49:55.432Z,45
2022-07-29T14:51:11.687Z,45
2022-07-29T14:52:27.914Z,45
2022-07-29T14:53:44.158Z,45
2022-07-29T14:55:00.405Z,39
2022-07-29T14:56:16.636Z,39
2022-07-29T14:57:32.887Z,39
2022-07-29T14:58:49.111Z,39
2022-07-29T15:00:05.366Z,45
2022-07-29T15:01:20.608Z,45
2022-07-29T15:02:36.854Z,45
2022-07-29T15:03:53.091Z,45
2022-07-29T15:05:09.341Z,45
2022-07-29T15:06:25.571Z,45
2022-07-29T15:07:41.812Z,45
2022-07-29T15:08:58.058Z,45
2022-07-29T15:10:14.297Z,45
2022-07-29T15:11:30.533Z,45
2022-07-29T15:12:46.779Z,45
2022-07-29T15:14:03.020Z,45
2022-07-29T15:15:19.262Z,45
2022-07-29T15:16:35.497Z,45
2022-07-29T15:17:50.745Z,45
2022-07-29T15:19:06.996Z,45
2022-07-29T15:20:23.221Z,45
2022-07-29T15:21:39.464Z,39
2022-07-29T15:22:55.709Z,39
2022-07-29T15:24:11.948Z,33
2022-07-29T15:25:28.185Z,33
2022-07-29T15:26:44.432Z,33
2022-07-29T15:28:00.676Z,28
2022-07-29T15:29:16.919Z,28
2022-07-29T15:30:33.148Z,22
2022-07-29T15:31:49.395Z,22
2022-07-29T15:33:05.620Z,16
2022-07-29T15:34:20.893Z,16
2022-07-29T15:35:37.130Z,16
2022-07-29T15:36:53.359Z,16
2022-07-29T15:38:09.604Z,11
2022-07-29T15:39:25.846Z,11
2022-07-29T15:40:42.092Z,11
2022-07-29T15:41:58.325Z,11
2022-07-29T15:43:14.561Z,11
2022-07-29T15:44:30.815Z,11
2022-07-29T15:45:47.054Z,16
2022-07-29T15:47:03.279Z,16
2022-07-29T15:48:19.523Z,16
2022-07-29T15:49:35.763Z,22
2022-07-29T15:50:51.023Z,22
2022-07-29T15:52:07.257Z,22
2022-07-29T15:53:23.511Z,28
2022-07-29T15:54:39.744Z,28
2022-07-29T15:55:55.988Z,33
2022-07-29T15:57:12.219Z,39
2022-07-29T15:58:28.449Z,45
2022-07-29T15:59:44.701Z,50
2022-07-29T16:01:00.938Z,56
2022-07-29T16:02:17.182Z,67
2022-07-29T16:03:33.408Z,73
2022-07-29T16:04:49.656Z,157
2022-07-29T16:06:05.903Z,78
2022-07-29T16:07:21.144Z,84
2022-07-29T16:08:37.389Z,191
2022-07-29T16:09:53.632Z,180
2022-07-29T16:11:09.874Z,129
2022-07-29T16:12:26.113Z,61
2022-07-29T16:13:42.351Z,45
2022-07-29T16:14:58.587Z,39
2022-07-29T16:16:14.814Z,33
2022-07-29T16:17:31.063Z,28
2022-07-29T16:18:47.294Z,28
2022-07-29T16:20:03.534Z,28
2022-07-29T16:21:19.788Z,28
2022-07-29T16:22:36.028Z,39
2022-07-29T16:23:51.265Z,50
2022-07-29T16:25:07.515Z,22
2022-07-29T16:26:23.745Z,16
2022-07-29T16:27:39.996Z,16
2022-07-29T16:28:56.239Z,16
2022-07-29T16:30:12.472Z,16
2022-07-29T16:31:28.712Z,16
2022-07-29T16:32:44.000Z,16
2022-07-29T16:34:01.190Z,16
2022-07-29T16:35:17.435Z,22
2022-07-29T16:36:33.656Z,16
2022-07-29T16:37:49.904Z,16
2022-07-29T16:39:06.144Z,16
2022-07-29T16:40:21.403Z,16
2022-07-29T16:41:37.627Z,16
2022-07-29T16:42:53.861Z,22
2022-07-29T16:44:10.105Z,22
2022-07-29T16:45:26.332Z,22
2022-07-29T16:46:42.570Z,22
2022-07-29T16:47:58.826Z,22
2022-07-29T16:49:15.049Z,22
2022-07-29T16:50:31.300Z,28
2022-07-29T16:51:47.526Z,28
2022-07-29T16:53:03.766Z,28
2022-07-29T16:54:20.021Z,28
2022-07-29T16:55:36.245Z,28
2022-07-29T16:56:51.512Z,22
2022-07-29T16:58:07.740Z,22
2022-07-29T16:59:23.986Z,16
2022-07-29T17:00:40.230Z,16
2022-07-29T17:01:56.467Z,16
2022-07-29T17:03:12.697Z,11
2022-07-29T17:04:28.936Z,11
2022-07-29T17:05:45.172Z,11
2022-07-29T17:07:01.421Z,11
2022-07-29T17:08:17.651Z,11
2022-07-29T17:09:33.896Z,11
2022-07-29T17:10:50.125Z,11
2022-07-29T17:12:06.368Z,11
2022-07-29T17:13:21.631Z,11
2022-07-29T17:14:37.856Z,11
2022-07-29T17:15:54.096Z,11
2022-07-29T17:17:10.345Z,11
2022-07-29T17:18:26.578Z,11
2022-07-29T17:19:42.824Z,11
2022-07-29T17:20:58.086Z,11
2022-07-29T17:22:14.311Z,11
2022-07-29T17:23:30.548Z,5
2022-07-29T17:24:46.800Z,5
2022-07-29T17:26:03.028Z,5
2022-07-29T17:27:19.271Z,5
2022-07-29T17:28:35.514Z,5
2022-07-29T17:29:51.757Z,5
2022-07-29T17:31:07.987Z,5
2022-07-29T17:32:24.218Z,5
2022-07-29T17:33:40.455Z,5
2022-07-29T17:34:56.693Z,0
2022-07-29T17:36:12.944Z,0
2022-07-29T17:37:28.190Z,0
2022-07-29T17:38:44.446Z,0
2022-07-29T17:40:00.665Z,0
2022-07-29T17:41:16.919Z,0
2022-07-29T17:42:33.142Z,0
2022-07-29T17:43:49.397Z,0
2022-07-29T17:45:05.636Z,0
2022-07-29T17:46:21.861Z,0
2022-07-29T17:47:38.096Z,0
2022-07-29T17:48:54.337Z,0
2022-07-29T17:50:10.584Z,0
2022-07-29T17:51:26.830Z,0
2022-07-29T17:52:43.058Z,0
2022-07-29T17:53:58.304Z,0
2022-07-29T17:55:14.547Z,0
2022-07-29T17:56:30.781Z,0
2022-07-29T17:57:47.032Z,0
2022-07-29T17:59:03.274Z,0
2022-07-29T18:00:19.511Z,0
2022-07-29T18:01:35.735Z,0
2022-07-29T18:02:51.973Z,0
2022-07-29T18:04:08.213Z,0
2022-07-29T18:05:24.453Z,0
2022-07-29T18:06:40.707Z,0
2022-07-29T18:07:56.941Z,0
2022-07-29T18:09:13.173Z,0
2022-07-29T18:10:28.422Z,0
2022-07-29T18:11:44.673Z,0
2022-07-29T18:13:00.901Z,0
2022-07-29T18:14:17.158Z,0